sensor_id;sensor_type;location;lat;lon;timestamp;P1;durP1;ratioP1;P2;durP2;ratioP2
77822;SDS011;67013;49.730;17.292;2023-04-12T00:01:28;40.00;;;13.80;;
77822;SDS011;67013;49.730;17.292;2023-04-12T00:03:57;39.00;;;13.40;;
77822;SDS011;67013;49.730;17.292;2023-04-12T00:06:29;33.30;;;12.90;;
77822;SDS011;67013;49.730;17.292;2023-04-12T00:08:59;37.40;;;11.70;;
77822;SDS011;67013;49.730;17.292;2023-04-12T00:11:29;45.70;;;15.30;;
77822;SDS011;67013;49.730;17.292;2023-04-12T00:13:59;42.10;;;12.90;;
77822;SDS011;67013;49.730;17.292;2023-04-12T00:16:29;37.90;;;13.80;;
77822;SDS011;67013;49.730;17.292;2023-04-12T00:18:58;42.30;;;15.00;;
77822;SDS011;67013;49.730;17.292;2023-04-12T00:21:29;47.60;;;16.20;;
77822;SDS011;67013;49.730;17.292;2023-04-12T00:23:58;43.70;;;12.30;;
77822;SDS011;67013;49.730;17.292;2023-04-12T00:26:28;37.60;;;13.20;;
77822;SDS011;67013;49.730;17.292;2023-04-12T00:28:57;51.50;;;17.30;;
77822;SDS011;67013;49.730;17.292;2023-04-12T00:31:27;43.60;;;13.90;;
77822;SDS011;67013;49.730;17.292;2023-04-12T00:33:57;35.10;;;13.30;;
77822;SDS011;67013;49.730;17.292;2023-04-12T00:36:27;47.00;;;13.90;;
77822;SDS011;67013;49.730;17.292;2023-04-12T00:38:56;43.90;;;14.00;;
77822;SDS011;67013;49.730;17.292;2023-04-12T00:41:26;44.90;;;13.80;;
77822;SDS011;67013;49.730;17.292;2023-04-12T00:43:59;42.40;;;13.30;;
77822;SDS011;67013;49.730;17.292;2023-04-12T00:46:28;40.00;;;14.20;;
77822;SDS011;67013;49.730;17.292;2023-04-12T00:48:59;33.00;;;10.80;;
77822;SDS011;67013;49.730;17.292;2023-04-12T00:51:31;33.90;;;12.90;;
77822;SDS011;67013;49.730;17.292;2023-04-12T00:54:04;41.40;;;12.90;;
77822;SDS011;67013;49.730;17.292;2023-04-12T00:56:34;34.70;;;12.00;;
77822;SDS011;67013;49.730;17.292;2023-04-12T00:59:05;43.10;;;13.50;;
77822;SDS011;67013;49.730;17.292;2023-04-12T01:01:35;45.30;;;13.40;;
77822;SDS011;67013;49.730;17.292;2023-04-12T01:04:06;37.90;;;12.50;;
77822;SDS011;67013;49.730;17.292;2023-04-12T01:06:43;50.60;;;16.20;;
77822;SDS011;67013;49.730;17.292;2023-04-12T01:09:30;37.10;;;12.30;;
77822;SDS011;67013;49.730;17.292;2023-04-12T01:12:14;41.40;;;13.70;;
77822;SDS011;67013;49.730;17.292;2023-04-12T01:14:50;46.80;;;14.80;;
77822;SDS011;67013;49.730;17.292;2023-04-12T01:17:27;36.80;;;11.80;;
77822;SDS011;67013;49.730;17.292;2023-04-12T01:20:04;32.70;;;11.70;;
77822;SDS011;67013;49.730;17.292;2023-04-12T01:25:53;42.00;;;12.50;;
77822;SDS011;67013;49.730;17.292;2023-04-12T01:28:37;47.80;;;11.80;;
77822;SDS011;67013;49.730;17.292;2023-04-12T01:31:09;33.40;;;12.30;;
77822;SDS011;67013;49.730;17.292;2023-04-12T01:33:40;51.70;;;16.20;;
77822;SDS011;67013;49.730;17.292;2023-04-12T01:36:13;44.50;;;13.70;;
77822;SDS011;67013;49.730;17.292;2023-04-12T01:38:46;36.50;;;14.50;;
77822;SDS011;67013;49.730;17.292;2023-04-12T01:41:17;31.90;;;12.90;;
77822;SDS011;67013;49.730;17.292;2023-04-12T01:43:47;32.00;;;11.60;;
77822;SDS011;67013;49.730;17.292;2023-04-12T01:46:17;34.40;;;12.00;;
77822;SDS011;67013;49.730;17.292;2023-04-12T01:48:50;48.50;;;14.40;;
77822;SDS011;67013;49.730;17.292;2023-04-12T01:51:26;46.60;;;13.50;;
77822;SDS011;67013;49.730;17.292;2023-04-12T01:54:05;38.70;;;14.00;;
77822;SDS011;67013;49.730;17.292;2023-04-12T01:56:39;37.80;;;13.40;;
77822;SDS011;67013;49.730;17.292;2023-04-12T01:59:12;38.20;;;13.10;;
77822;SDS011;67013;49.730;17.292;2023-04-12T02:01:43;41.30;;;11.90;;
77822;SDS011;67013;49.730;17.292;2023-04-12T02:04:13;30.50;;;10.80;;
77822;SDS011;67013;49.730;17.292;2023-04-12T02:06:45;34.70;;;12.40;;
77822;SDS011;67013;49.730;17.292;2023-04-12T02:09:15;39.40;;;12.10;;
77822;SDS011;67013;49.730;17.292;2023-04-12T02:11:46;36.30;;;12.20;;
77822;SDS011;67013;49.730;17.292;2023-04-12T02:14:16;48.00;;;15.00;;
77822;SDS011;67013;49.730;17.292;2023-04-12T02:16:45;42.40;;;14.20;;
77822;SDS011;67013;49.730;17.292;2023-04-12T02:19:16;32.50;;;12.20;;
77822;SDS011;67013;49.730;17.292;2023-04-12T02:21:45;42.20;;;13.20;;
77822;SDS011;67013;49.730;17.292;2023-04-12T02:24:15;42.60;;;14.50;;
77822;SDS011;67013;49.730;17.292;2023-04-12T02:26:44;47.80;;;13.60;;
77822;SDS011;67013;49.730;17.292;2023-04-12T02:29:15;44.90;;;13.90;;
77822;SDS011;67013;49.730;17.292;2023-04-12T02:31:44;25.80;;;11.00;;
77822;SDS011;67013;49.730;17.292;2023-04-12T02:34:14;28.60;;;9.90;;
77822;SDS011;67013;49.730;17.292;2023-04-12T02:36:46;46.50;;;14.70;;
77822;SDS011;67013;49.730;17.292;2023-04-12T02:39:16;33.20;;;11.80;;
77822;SDS011;67013;49.730;17.292;2023-04-12T02:41:47;37.10;;;13.10;;
77822;SDS011;67013;49.730;17.292;2023-04-12T02:44:17;40.60;;;14.10;;
77822;SDS011;67013;49.730;17.292;2023-04-12T02:46:46;47.00;;;16.30;;
77822;SDS011;67013;49.730;17.292;2023-04-12T02:49:15;46.30;;;15.90;;
77822;SDS011;67013;49.730;17.292;2023-04-12T02:51:45;42.80;;;14.40;;
77822;SDS011;67013;49.730;17.292;2023-04-12T02:54:14;46.70;;;14.50;;
77822;SDS011;67013;49.730;17.292;2023-04-12T02:56:44;36.30;;;13.20;;
77822;SDS011;67013;49.730;17.292;2023-04-12T02:59:13;31.50;;;12.70;;
77822;SDS011;67013;49.730;17.292;2023-04-12T03:01:43;43.40;;;12.80;;
77822;SDS011;67013;49.730;17.292;2023-04-12T03:04:13;33.10;;;10.90;;
77822;SDS011;67013;49.730;17.292;2023-04-12T03:06:42;36.40;;;12.00;;
77822;SDS011;67013;49.730;17.292;2023-04-12T03:09:19;49.30;;;14.10;;
77822;SDS011;67013;49.730;17.292;2023-04-12T03:11:49;43.20;;;14.20;;
77822;SDS011;67013;49.730;17.292;2023-04-12T03:14:19;31.40;;;10.90;;
77822;SDS011;67013;49.730;17.292;2023-04-12T03:16:48;26.80;;;10.10;;
77822;SDS011;67013;49.730;17.292;2023-04-12T03:19:19;34.60;;;11.80;;
77822;SDS011;67013;49.730;17.292;2023-04-12T03:21:48;41.60;;;15.50;;
77822;SDS011;67013;49.730;17.292;2023-04-12T03:24:18;44.90;;;13.50;;
77822;SDS011;67013;49.730;17.292;2023-04-12T03:26:47;44.10;;;14.20;;
77822;SDS011;67013;49.730;17.292;2023-04-12T03:29:17;44.60;;;14.70;;
77822;SDS011;67013;49.730;17.292;2023-04-12T03:31:47;38.70;;;14.90;;
77822;SDS011;67013;49.730;17.292;2023-04-12T03:34:16;39.30;;;13.60;;
77822;SDS011;67013;49.730;17.292;2023-04-12T03:36:46;34.80;;;12.90;;
77822;SDS011;67013;49.730;17.292;2023-04-12T03:39:15;34.50;;;13.10;;
77822;SDS011;67013;49.730;17.292;2023-04-12T03:41:46;31.70;;;12.00;;
77822;SDS011;67013;49.730;17.292;2023-04-12T03:44:15;39.30;;;12.80;;
77822;SDS011;67013;49.730;17.292;2023-04-12T03:46:45;54.80;;;15.60;;
77822;SDS011;67013;49.730;17.292;2023-04-12T03:49:15;47.30;;;14.30;;
77822;SDS011;67013;49.730;17.292;2023-04-12T03:51:44;49.00;;;14.70;;
77822;SDS011;67013;49.730;17.292;2023-04-12T03:54:16;54.40;;;15.90;;
77822;SDS011;67013;49.730;17.292;2023-04-12T03:56:45;50.00;;;14.50;;
77822;SDS011;67013;49.730;17.292;2023-04-12T03:59:15;35.70;;;11.10;;
77822;SDS011;67013;49.730;17.292;2023-04-12T04:01:44;41.80;;;13.60;;
77822;SDS011;67013;49.730;17.292;2023-04-12T04:04:14;53.80;;;15.40;;
77822;SDS011;67013;49.730;17.292;2023-04-12T04:06:43;55.10;;;16.60;;
77822;SDS011;67013;49.730;17.292;2023-04-12T04:09:14;53.00;;;15.20;;
77822;SDS011;67013;49.730;17.292;2023-04-12T04:11:43;62.50;;;16.80;;
77822;SDS011;67013;49.730;17.292;2023-04-12T04:14:13;50.60;;;15.60;;
77822;SDS011;67013;49.730;17.292;2023-04-12T04:16:42;37.30;;;14.00;;
77822;SDS011;67013;49.730;17.292;2023-04-12T04:19:12;42.40;;;16.10;;
77822;SDS011;67013;49.730;17.292;2023-04-12T04:21:42;51.00;;;17.70;;
77822;SDS011;67013;49.730;17.292;2023-04-12T04:24:11;53.60;;;16.30;;
77822;SDS011;67013;49.730;17.292;2023-04-12T04:26:41;27.90;;;10.20;;
77822;SDS011;67013;49.730;17.292;2023-04-12T04:29:10;41.00;;;12.40;;
77822;SDS011;67013;49.730;17.292;2023-04-12T04:31:40;49.10;;;14.50;;
77822;SDS011;67013;49.730;17.292;2023-04-12T04:34:11;61.80;;;15.70;;
77822;SDS011;67013;49.730;17.292;2023-04-12T04:36:41;55.60;;;15.20;;
77822;SDS011;67013;49.730;17.292;2023-04-12T04:39:12;53.10;;;18.40;;
77822;SDS011;67013;49.730;17.292;2023-04-12T04:41:41;72.50;;;23.00;;
77822;SDS011;67013;49.730;17.292;2023-04-12T04:44:12;51.50;;;16.70;;
77822;SDS011;67013;49.730;17.292;2023-04-12T04:46:41;45.30;;;14.90;;
77822;SDS011;67013;49.730;17.292;2023-04-12T04:49:11;40.20;;;13.50;;
77822;SDS011;67013;49.730;17.292;2023-04-12T04:51:40;46.50;;;14.60;;
77822;SDS011;67013;49.730;17.292;2023-04-12T04:54:10;43.30;;;14.80;;
77822;SDS011;67013;49.730;17.292;2023-04-12T04:56:39;44.60;;;16.20;;
77822;SDS011;67013;49.730;17.292;2023-04-12T04:59:09;39.70;;;14.60;;
77822;SDS011;67013;49.730;17.292;2023-04-12T05:01:38;35.10;;;14.90;;
77822;SDS011;67013;49.730;17.292;2023-04-12T05:04:08;42.00;;;16.70;;
77822;SDS011;67013;49.730;17.292;2023-04-12T05:06:38;49.70;;;20.00;;
77822;SDS011;67013;49.730;17.292;2023-04-12T05:09:07;47.40;;;22.60;;
77822;SDS011;67013;49.730;17.292;2023-04-12T05:11:36;36.00;;;16.30;;
77822;SDS011;67013;49.730;17.292;2023-04-12T05:14:06;36.20;;;16.00;;
77822;SDS011;67013;49.730;17.292;2023-04-12T05:16:35;34.70;;;14.80;;
77822;SDS011;67013;49.730;17.292;2023-04-12T05:19:05;36.50;;;15.60;;
77822;SDS011;67013;49.730;17.292;2023-04-12T05:21:34;37.40;;;16.20;;
77822;SDS011;67013;49.730;17.292;2023-04-12T05:24:05;43.20;;;16.00;;
77822;SDS011;67013;49.730;17.292;2023-04-12T05:26:35;36.30;;;16.00;;
77822;SDS011;67013;49.730;17.292;2023-04-12T05:29:04;35.10;;;15.80;;
77822;SDS011;67013;49.730;17.292;2023-04-12T05:31:34;35.70;;;14.90;;
77822;SDS011;67013;49.730;17.292;2023-04-12T05:34:03;33.30;;;16.10;;
77822;SDS011;67013;49.730;17.292;2023-04-12T05:36:32;38.60;;;18.40;;
77822;SDS011;67013;49.730;17.292;2023-04-12T05:39:02;36.70;;;16.30;;
77822;SDS011;67013;49.730;17.292;2023-04-12T05:41:31;33.50;;;14.60;;
77822;SDS011;67013;49.730;17.292;2023-04-12T05:44:01;33.10;;;15.50;;
77822;SDS011;67013;49.730;17.292;2023-04-12T05:46:31;33.50;;;15.70;;
77822;SDS011;67013;49.730;17.292;2023-04-12T05:49:01;33.10;;;15.60;;
77822;SDS011;67013;49.730;17.292;2023-04-12T05:51:31;32.90;;;14.20;;
77822;SDS011;67013;49.730;17.292;2023-04-12T05:54:00;29.20;;;13.60;;
77822;SDS011;67013;49.730;17.292;2023-04-12T05:56:31;30.00;;;14.40;;
77822;SDS011;67013;49.730;17.292;2023-04-12T05:59:01;29.10;;;15.30;;
77822;SDS011;67013;49.730;17.292;2023-04-12T06:01:32;29.10;;;15.30;;
77822;SDS011;67013;49.730;17.292;2023-04-12T06:04:01;30.10;;;14.50;;
77822;SDS011;67013;49.730;17.292;2023-04-12T06:06:31;36.80;;;17.50;;
77822;SDS011;67013;49.730;17.292;2023-04-12T06:09:01;29.60;;;14.00;;
77822;SDS011;67013;49.730;17.292;2023-04-12T06:11:30;26.20;;;14.50;;
77822;SDS011;67013;49.730;17.292;2023-04-12T06:14:00;28.10;;;18.00;;
77822;SDS011;67013;49.730;17.292;2023-04-12T06:16:30;30.90;;;16.10;;
77822;SDS011;67013;49.730;17.292;2023-04-12T06:18:59;27.20;;;16.40;;
77822;SDS011;67013;49.730;17.292;2023-04-12T06:21:29;27.60;;;17.60;;
77822;SDS011;67013;49.730;17.292;2023-04-12T06:23:58;31.70;;;18.60;;
77822;SDS011;67013;49.730;17.292;2023-04-12T06:26:28;33.50;;;19.90;;
77822;SDS011;67013;49.730;17.292;2023-04-12T06:28:57;44.00;;;29.30;;
77822;SDS011;67013;49.730;17.292;2023-04-12T06:31:27;27.80;;;17.20;;
77822;SDS011;67013;49.730;17.292;2023-04-12T06:33:57;32.00;;;18.70;;
77822;SDS011;67013;49.730;17.292;2023-04-12T06:36:26;34.60;;;26.40;;
77822;SDS011;67013;49.730;17.292;2023-04-12T06:38:56;27.70;;;15.10;;
77822;SDS011;67013;49.730;17.292;2023-04-12T06:41:25;28.20;;;14.60;;
77822;SDS011;67013;49.730;17.292;2023-04-12T06:43:55;32.30;;;15.70;;
77822;SDS011;67013;49.730;17.292;2023-04-12T06:46:27;31.90;;;16.10;;
77822;SDS011;67013;49.730;17.292;2023-04-12T06:48:57;29.20;;;15.50;;
77822;SDS011;67013;49.730;17.292;2023-04-12T06:51:27;32.70;;;15.20;;
77822;SDS011;67013;49.730;17.292;2023-04-12T06:53:57;32.50;;;15.30;;
77822;SDS011;67013;49.730;17.292;2023-04-12T06:56:26;28.30;;;14.60;;
77822;SDS011;67013;49.730;17.292;2023-04-12T06:58:56;29.10;;;14.90;;
77822;SDS011;67013;49.730;17.292;2023-04-12T07:01:25;33.40;;;15.00;;
77822;SDS011;67013;49.730;17.292;2023-04-12T07:03:54;32.10;;;14.80;;
77822;SDS011;67013;49.730;17.292;2023-04-12T07:06:24;30.50;;;16.20;;
77822;SDS011;67013;49.730;17.292;2023-04-12T07:08:53;32.50;;;17.10;;
77822;SDS011;67013;49.730;17.292;2023-04-12T07:11:23;32.80;;;16.30;;
77822;SDS011;67013;49.730;17.292;2023-04-12T07:13:53;36.80;;;15.50;;
77822;SDS011;67013;49.730;17.292;2023-04-12T07:16:24;35.90;;;16.70;;
77822;SDS011;67013;49.730;17.292;2023-04-12T07:18:58;32.70;;;15.50;;
77822;SDS011;67013;49.730;17.292;2023-04-12T07:21:27;34.00;;;15.20;;
77822;SDS011;67013;49.730;17.292;2023-04-12T07:23:57;29.90;;;14.70;;
77822;SDS011;67013;49.730;17.292;2023-04-12T07:26:27;33.20;;;14.50;;
77822;SDS011;67013;49.730;17.292;2023-04-12T07:28:56;34.30;;;15.00;;
77822;SDS011;67013;49.730;17.292;2023-04-12T07:31:26;31.10;;;13.40;;
77822;SDS011;67013;49.730;17.292;2023-04-12T07:33:57;31.00;;;14.00;;
77822;SDS011;67013;49.730;17.292;2023-04-12T07:36:26;33.80;;;14.30;;
77822;SDS011;67013;49.730;17.292;2023-04-12T07:38:57;31.20;;;14.30;;
77822;SDS011;67013;49.730;17.292;2023-04-12T07:41:26;30.20;;;13.90;;
77822;SDS011;67013;49.730;17.292;2023-04-12T07:43:56;28.30;;;12.90;;
77822;SDS011;67013;49.730;17.292;2023-04-12T07:46:26;27.40;;;13.60;;
77822;SDS011;67013;49.730;17.292;2023-04-12T07:48:55;26.90;;;12.40;;
77822;SDS011;67013;49.730;17.292;2023-04-12T07:51:25;34.10;;;13.00;;
77822;SDS011;67013;49.730;17.292;2023-04-12T07:53:54;32.40;;;12.80;;
77822;SDS011;67013;49.730;17.292;2023-04-12T07:56:24;35.90;;;14.10;;
77822;SDS011;67013;49.730;17.292;2023-04-12T07:58:53;29.10;;;14.50;;
77822;SDS011;67013;49.730;17.292;2023-04-12T08:01:23;35.40;;;15.00;;
77822;SDS011;67013;49.730;17.292;2023-04-12T08:03:53;30.10;;;13.80;;
77822;SDS011;67013;49.730;17.292;2023-04-12T08:06:22;25.00;;;12.00;;
77822;SDS011;67013;49.730;17.292;2023-04-12T08:08:52;31.80;;;13.60;;
77822;SDS011;67013;49.730;17.292;2023-04-12T08:11:22;32.90;;;14.80;;
77822;SDS011;67013;49.730;17.292;2023-04-12T08:13:51;28.40;;;12.50;;
77822;SDS011;67013;49.730;17.292;2023-04-12T08:16:21;39.20;;;21.30;;
77822;SDS011;67013;49.730;17.292;2023-04-12T08:18:51;39.00;;;18.50;;
77822;SDS011;67013;49.730;17.292;2023-04-12T08:21:20;37.60;;;19.10;;
77822;SDS011;67013;49.730;17.292;2023-04-12T08:23:50;27.30;;;15.00;;
77822;SDS011;67013;49.730;17.292;2023-04-12T08:26:19;29.40;;;13.20;;
77822;SDS011;67013;49.730;17.292;2023-04-12T08:28:49;31.00;;;13.60;;
77822;SDS011;67013;49.730;17.292;2023-04-12T08:31:18;32.10;;;13.50;;
77822;SDS011;67013;49.730;17.292;2023-04-12T08:33:49;31.40;;;13.00;;
77822;SDS011;67013;49.730;17.292;2023-04-12T08:36:18;35.00;;;14.70;;
77822;SDS011;67013;49.730;17.292;2023-04-12T08:38:48;33.10;;;14.30;;
77822;SDS011;67013;49.730;17.292;2023-04-12T08:41:18;37.80;;;14.50;;
77822;SDS011;67013;49.730;17.292;2023-04-12T08:43:48;36.20;;;15.80;;
77822;SDS011;67013;49.730;17.292;2023-04-12T08:46:20;32.40;;;14.50;;
77822;SDS011;67013;49.730;17.292;2023-04-12T08:48:51;38.10;;;17.40;;
77822;SDS011;67013;49.730;17.292;2023-04-12T08:51:22;38.50;;;15.40;;
77822;SDS011;67013;49.730;17.292;2023-04-12T08:53:53;36.10;;;14.50;;
77822;SDS011;67013;49.730;17.292;2023-04-12T08:56:23;36.60;;;14.40;;
77822;SDS011;67013;49.730;17.292;2023-04-12T08:58:52;34.30;;;14.40;;
77822;SDS011;67013;49.730;17.292;2023-04-12T09:01:22;31.80;;;13.70;;
77822;SDS011;67013;49.730;17.292;2023-04-12T09:03:52;33.70;;;13.60;;
77822;SDS011;67013;49.730;17.292;2023-04-12T09:06:22;31.50;;;13.90;;
77822;SDS011;67013;49.730;17.292;2023-04-12T09:08:52;33.00;;;15.20;;
77822;SDS011;67013;49.730;17.292;2023-04-12T09:11:23;30.30;;;12.00;;
77822;SDS011;67013;49.730;17.292;2023-04-12T09:13:55;28.50;;;12.10;;
77822;SDS011;67013;49.730;17.292;2023-04-12T09:16:34;32.70;;;12.50;;
77822;SDS011;67013;49.730;17.292;2023-04-12T09:19:06;32.60;;;13.70;;
77822;SDS011;67013;49.730;17.292;2023-04-12T09:21:35;30.60;;;12.30;;
77822;SDS011;67013;49.730;17.292;2023-04-12T09:24:18;21.20;;;10.20;;
77822;SDS011;67013;49.730;17.292;2023-04-12T09:26:52;26.90;;;10.30;;
77822;SDS011;67013;49.730;17.292;2023-04-12T09:29:30;30.10;;;12.70;;
77822;SDS011;67013;49.730;17.292;2023-04-12T09:32:01;29.90;;;13.90;;
77822;SDS011;67013;49.730;17.292;2023-04-12T09:34:33;33.60;;;11.80;;
77822;SDS011;67013;49.730;17.292;2023-04-12T09:37:12;30.90;;;12.20;;
77822;SDS011;67013;49.730;17.292;2023-04-12T09:39:42;30.40;;;12.80;;
77822;SDS011;67013;49.730;17.292;2023-04-12T09:42:12;26.30;;;11.00;;
77822;SDS011;67013;49.730;17.292;2023-04-12T09:44:42;27.20;;;11.80;;
77822;SDS011;67013;49.730;17.292;2023-04-12T09:47:11;30.70;;;12.40;;
77822;SDS011;67013;49.730;17.292;2023-04-12T09:49:41;28.00;;;11.10;;
77822;SDS011;67013;49.730;17.292;2023-04-12T09:52:12;27.60;;;10.90;;
77822;SDS011;67013;49.730;17.292;2023-04-12T09:54:42;27.90;;;12.00;;
77822;SDS011;67013;49.730;17.292;2023-04-12T09:57:13;18.40;;;8.40;;
77822;SDS011;67013;49.730;17.292;2023-04-12T09:59:47;21.40;;;8.30;;
77822;SDS011;67013;49.730;17.292;2023-04-12T10:02:18;20.90;;;9.70;;
77822;SDS011;67013;49.730;17.292;2023-04-12T10:04:53;22.30;;;9.20;;
77822;SDS011;67013;49.730;17.292;2023-04-12T10:07:23;27.20;;;11.20;;
77822;SDS011;67013;49.730;17.292;2023-04-12T10:09:53;22.70;;;9.30;;
77822;SDS011;67013;49.730;17.292;2023-04-12T10:12:27;23.50;;;10.60;;
77822;SDS011;67013;49.730;17.292;2023-04-12T10:14:57;22.70;;;9.90;;
77822;SDS011;67013;49.730;17.292;2023-04-12T10:17:31;21.70;;;10.10;;
77822;SDS011;67013;49.730;17.292;2023-04-12T10:20:01;24.60;;;9.60;;
77822;SDS011;67013;49.730;17.292;2023-04-12T10:22:31;27.80;;;8.80;;
77822;SDS011;67013;49.730;17.292;2023-04-12T10:25:01;25.70;;;9.80;;
77822;SDS011;67013;49.730;17.292;2023-04-12T10:27:31;25.40;;;9.20;;
77822;SDS011;67013;49.730;17.292;2023-04-12T10:32:49;21.30;;;10.30;;
77822;SDS011;67013;49.730;17.292;2023-04-12T10:35:51;25.10;;;11.60;;
77822;SDS011;67013;49.730;17.292;2023-04-12T10:38:22;36.00;;;13.10;;
77822;SDS011;67013;49.730;17.292;2023-04-12T10:41:18;24.10;;;9.90;;
77822;SDS011;67013;49.730;17.292;2023-04-12T10:43:49;27.20;;;10.40;;
77822;SDS011;67013;49.730;17.292;2023-04-12T10:49:18;20.60;;;9.10;;
77822;SDS011;67013;49.730;17.292;2023-04-12T10:54:41;21.10;;;8.80;;
77822;SDS011;67013;49.730;17.292;2023-04-12T11:00:14;14.70;;;6.10;;
77822;SDS011;67013;49.730;17.292;2023-04-12T11:08:28;18.50;;;7.40;;
77822;SDS011;67013;49.730;17.292;2023-04-12T11:10:59;30.60;;;10.00;;
77822;SDS011;67013;49.730;17.292;2023-04-12T11:13:32;21.50;;;9.40;;
77822;SDS011;67013;49.730;17.292;2023-04-12T11:16:04;26.50;;;9.20;;
77822;SDS011;67013;49.730;17.292;2023-04-12T11:18:34;17.10;;;7.60;;
77822;SDS011;67013;49.730;17.292;2023-04-12T11:21:04;18.20;;;7.80;;
77822;SDS011;67013;49.730;17.292;2023-04-12T11:23:34;15.50;;;7.70;;
77822;SDS011;67013;49.730;17.292;2023-04-12T11:26:06;18.20;;;6.90;;
77822;SDS011;67013;49.730;17.292;2023-04-12T11:28:36;16.30;;;7.20;;
77822;SDS011;67013;49.730;17.292;2023-04-12T11:31:06;17.00;;;8.10;;
77822;SDS011;67013;49.730;17.292;2023-04-12T11:33:37;17.60;;;6.70;;
77822;SDS011;67013;49.730;17.292;2023-04-12T11:36:08;19.50;;;7.30;;
77822;SDS011;67013;49.730;17.292;2023-04-12T11:38:39;17.50;;;7.10;;
77822;SDS011;67013;49.730;17.292;2023-04-12T11:41:13;18.20;;;8.10;;
77822;SDS011;67013;49.730;17.292;2023-04-12T11:43:44;17.70;;;7.90;;
77822;SDS011;67013;49.730;17.292;2023-04-12T11:46:14;16.50;;;7.50;;
77822;SDS011;67013;49.730;17.292;2023-04-12T11:48:45;16.10;;;7.00;;
77822;SDS011;67013;49.730;17.292;2023-04-12T11:51:21;18.70;;;7.40;;
77822;SDS011;67013;49.730;17.292;2023-04-12T11:53:53;16.70;;;7.40;;
77822;SDS011;67013;49.730;17.292;2023-04-12T11:56:24;16.00;;;5.80;;
77822;SDS011;67013;49.730;17.292;2023-04-12T11:58:55;21.20;;;7.80;;
77822;SDS011;67013;49.730;17.292;2023-04-12T12:01:24;14.70;;;5.60;;
77822;SDS011;67013;49.730;17.292;2023-04-12T12:03:54;21.00;;;7.20;;
77822;SDS011;67013;49.730;17.292;2023-04-12T12:06:25;16.80;;;7.10;;
77822;SDS011;67013;49.730;17.292;2023-04-12T12:08:55;15.80;;;6.60;;
77822;SDS011;67013;49.730;17.292;2023-04-12T12:11:25;17.30;;;6.10;;
77822;SDS011;67013;49.730;17.292;2023-04-12T12:13:55;13.90;;;5.90;;
77822;SDS011;67013;49.730;17.292;2023-04-12T12:16:26;24.90;;;9.00;;
77822;SDS011;67013;49.730;17.292;2023-04-12T12:18:56;20.70;;;8.70;;
77822;SDS011;67013;49.730;17.292;2023-04-12T12:21:30;16.70;;;8.00;;
77822;SDS011;67013;49.730;17.292;2023-04-12T12:23:59;21.30;;;9.80;;
77822;SDS011;67013;49.730;17.292;2023-04-12T12:26:29;27.30;;;11.80;;
77822;SDS011;67013;49.730;17.292;2023-04-12T12:28:58;44.20;;;15.10;;
77822;SDS011;67013;49.730;17.292;2023-04-12T12:31:28;15.50;;;6.90;;
77822;SDS011;67013;49.730;17.292;2023-04-12T12:33:59;22.40;;;11.40;;
77822;SDS011;67013;49.730;17.292;2023-04-12T12:36:29;30.00;;;12.10;;
77822;SDS011;67013;49.730;17.292;2023-04-12T12:39:03;27.00;;;10.60;;
77822;SDS011;67013;49.730;17.292;2023-04-12T12:41:36;26.30;;;10.90;;
77822;SDS011;67013;49.730;17.292;2023-04-12T12:44:06;27.00;;;12.00;;
77822;SDS011;67013;49.730;17.292;2023-04-12T12:46:36;23.50;;;11.00;;
77822;SDS011;67013;49.730;17.292;2023-04-12T12:49:06;26.20;;;10.70;;
77822;SDS011;67013;49.730;17.292;2023-04-12T12:51:35;25.60;;;11.30;;
77822;SDS011;67013;49.730;17.292;2023-04-12T12:54:04;28.70;;;10.90;;
77822;SDS011;67013;49.730;17.292;2023-04-12T12:56:34;26.50;;;10.90;;
77822;SDS011;67013;49.730;17.292;2023-04-12T12:59:03;25.80;;;13.10;;
77822;SDS011;67013;49.730;17.292;2023-04-12T13:01:33;20.40;;;9.70;;
77822;SDS011;67013;49.730;17.292;2023-04-12T13:04:02;24.00;;;10.60;;
77822;SDS011;67013;49.730;17.292;2023-04-12T13:06:32;25.40;;;12.30;;
77822;SDS011;67013;49.730;17.292;2023-04-12T13:09:02;27.00;;;11.70;;
77822;SDS011;67013;49.730;17.292;2023-04-12T13:11:32;26.30;;;10.00;;
77822;SDS011;67013;49.730;17.292;2023-04-12T13:14:02;23.60;;;10.00;;
77822;SDS011;67013;49.730;17.292;2023-04-12T13:16:32;20.50;;;9.70;;
77822;SDS011;67013;49.730;17.292;2023-04-12T13:19:01;22.10;;;9.60;;
77822;SDS011;67013;49.730;17.292;2023-04-12T13:21:31;24.40;;;9.50;;
77822;SDS011;67013;49.730;17.292;2023-04-12T13:24:00;16.70;;;7.60;;
77822;SDS011;67013;49.730;17.292;2023-04-12T13:26:30;21.20;;;9.00;;
77822;SDS011;67013;49.730;17.292;2023-04-12T13:29:00;19.70;;;8.50;;
77822;SDS011;67013;49.730;17.292;2023-04-12T13:31:29;19.60;;;9.20;;
77822;SDS011;67013;49.730;17.292;2023-04-12T13:33:59;23.10;;;9.60;;
77822;SDS011;67013;49.730;17.292;2023-04-12T13:36:28;21.60;;;9.70;;
77822;SDS011;67013;49.730;17.292;2023-04-12T13:38:58;24.20;;;9.80;;
77822;SDS011;67013;49.730;17.292;2023-04-12T13:41:27;22.70;;;10.20;;
77822;SDS011;67013;49.730;17.292;2023-04-12T13:43:59;23.00;;;8.60;;
77822;SDS011;67013;49.730;17.292;2023-04-12T13:46:29;22.00;;;10.20;;
77822;SDS011;67013;49.730;17.292;2023-04-12T13:48:59;29.60;;;11.60;;
77822;SDS011;67013;49.730;17.292;2023-04-12T13:51:28;20.80;;;10.10;;
77822;SDS011;67013;49.730;17.292;2023-04-12T13:53:59;24.40;;;10.70;;
77822;SDS011;67013;49.730;17.292;2023-04-12T13:56:28;25.30;;;10.60;;
77822;SDS011;67013;49.730;17.292;2023-04-12T13:58:58;27.10;;;10.00;;
77822;SDS011;67013;49.730;17.292;2023-04-12T14:01:28;23.50;;;9.30;;
77822;SDS011;67013;49.730;17.292;2023-04-12T14:03:58;27.20;;;10.50;;
77822;SDS011;67013;49.730;17.292;2023-04-12T14:06:27;25.30;;;10.40;;
77822;SDS011;67013;49.730;17.292;2023-04-12T14:08:58;20.20;;;10.40;;
77822;SDS011;67013;49.730;17.292;2023-04-12T14:11:27;21.40;;;9.60;;
77822;SDS011;67013;49.730;17.292;2023-04-12T14:13:57;24.80;;;10.20;;
77822;SDS011;67013;49.730;17.292;2023-04-12T14:16:26;21.20;;;8.90;;
77822;SDS011;67013;49.730;17.292;2023-04-12T14:18:56;22.70;;;8.90;;
77822;SDS011;67013;49.730;17.292;2023-04-12T14:21:25;19.30;;;9.00;;
77822;SDS011;67013;49.730;17.292;2023-04-12T14:23:55;24.80;;;9.20;;
77822;SDS011;67013;49.730;17.292;2023-04-12T14:26:24;22.50;;;9.00;;
77822;SDS011;67013;49.730;17.292;2023-04-12T14:28:54;18.30;;;8.30;;
77822;SDS011;67013;49.730;17.292;2023-04-12T14:31:23;19.90;;;9.00;;
77822;SDS011;67013;49.730;17.292;2023-04-12T14:33:53;20.30;;;8.60;;
77822;SDS011;67013;49.730;17.292;2023-04-12T14:38:53;20.10;;;7.50;;
77822;SDS011;67013;49.730;17.292;2023-04-12T14:41:22;19.80;;;8.60;;
77822;SDS011;67013;49.730;17.292;2023-04-12T14:43:52;21.00;;;8.20;;
77822;SDS011;67013;49.730;17.292;2023-04-12T14:46:22;20.90;;;7.80;;
77822;SDS011;67013;49.730;17.292;2023-04-12T14:48:53;22.20;;;9.00;;
77822;SDS011;67013;49.730;17.292;2023-04-12T14:51:24;21.70;;;8.00;;
77822;SDS011;67013;49.730;17.292;2023-04-12T14:53:54;15.90;;;7.70;;